Time;durP1;ratioP1;P1;durP2;ratioP2;P2;SDS_P1;SDS_P2;PMS_P1;PMS_P2;Temp;Humidity;BMP_temperature;BMP_pressure;BME280_temperature;BME280_humidity;BME280_pressure;Samples;Min_cycle;Max_cycle;Signal;HPM_P1;HPM_P2
2022/05/19 00:01:37;;;;;;;20.33;12.77;;;;;;;17.24;79.96;101830.72;5026639;28;20069;-73
2022/05/19 00:04:03;;;;;;;22.67;12.93;;;;;;;17.24;79.89;101826.25;5009063;28;20034;-74
2022/05/19 00:06:28;;;;;;;18.55;12.43;;;;;;;17.25;80.15;101825.34;5005196;28;20122;-74
2022/05/19 00:08:54;;;;;;;17.55;12.40;;;;;;;17.23;80.30;101816.63;5013463;28;20118;-74
2022/05/19 00:11:27;;;;;;;20.25;13.20;;;;;;;17.23;80.42;101810.47;5026995;28;20073;-74
2022/05/19 00:13:52;;;;;;;14.82;12.73;;;;;;;17.24;80.41;101820.97;5026247;28;20038;-74
2022/05/19 00:16:18;;;;;;;17.02;12.55;;;;;;;17.23;80.63;101819.28;5026401;28;20032;-74
2022/05/19 00:18:43;;;;;;;16.50;13.20;;;;;;;17.27;80.19;101823.47;5009225;28;20148;-74
2022/05/19 00:21:08;;;;;;;17.95;13.85;;;;;;;17.27;80.65;101818.16;5026617;28;20033;-74
2022/05/19 00:23:34;;;;;;;18.45;12.95;;;;;;;17.25;80.61;101820.03;5025927;28;20064;-74
2022/05/19 00:25:59;;;;;;;16.27;13.80;;;;;;;17.26;80.92;101816.47;5026692;28;20033;-74
2022/05/19 00:28:25;;;;;;;15.35;13.75;;;;;;;17.25;81.10;101804.16;5026109;28;20033;-74
2022/05/19 00:30:50;;;;;;;20.80;14.15;;;;;;;17.26;81.03;101797.06;5009154;28;20041;-74
2022/05/19 00:33:16;;;;;;;15.95;13.15;;;;;;;17.27;80.90;101804.06;5009828;28;20080;-74
2022/05/19 00:35:42;;;;;;;20.13;14.48;;;;;;;17.28;81.17;101795.19;5026566;28;20049;-74
2022/05/19 00:38:08;;;;;;;20.45;14.50;;;;;;;17.29;81.14;101788.97;5029521;28;20038;-74
2022/05/19 00:40:34;;;;;;;20.15;14.48;;;;;;;17.31;81.08;101784.44;5021423;28;20088;-74
2022/05/19 00:43:00;;;;;;;21.42;14.52;;;;;;;17.30;81.26;101779.22;5067669;28;20040;-75
2022/05/19 00:45:32;;;;;;;19.77;14.80;;;;;;;17.31;81.32;101786.25;5029812;28;20387;-74
2022/05/19 00:48:12;;;;;;;18.02;14.20;;;;;;;17.32;81.57;101778.22;5021776;28;20032;-74
2022/05/19 00:51:00;;;;;;;17.00;14.45;;;;;;;17.32;81.92;101777.34;5040024;28;20048;-74
2022/05/19 00:53:46;;;;;;;19.50;15.55;;;;;;;17.32;81.69;101772.91;5046209;28;20067;-74
2022/05/19 00:56:17;;;;;;;18.98;15.55;;;;;;;17.32;82.11;101767.63;5047988;28;20048;-74
2022/05/19 00:58:47;;;;;;;24.92;16.90;;;;;;;17.33;82.22;101764.03;5046644;28;20036;-74
2022/05/19 01:04:45;;;;;;;20.75;15.75;;;;;;;17.36;81.69;101763.88;5039775;28;20036;-77
2022/05/19 01:07:16;;;;;;;20.13;14.77;;;;;;;17.38;81.87;101761.97;5030030;28;20033;-77
2022/05/19 01:09:42;;;;;;;25.38;15.45;;;;;;;17.39;81.82;101762.84;5038375;28;20049;-76
2022/05/19 01:12:09;;;;;;;20.65;15.50;;;;;;;17.40;81.83;101760.09;5005411;28;20049;-77
2022/05/19 01:14:35;;;;;;;25.10;15.88;;;;;;;17.39;81.90;101754.88;5023065;28;20056;-76
2022/05/19 01:17:02;;;;;;;23.75;16.27;;;;;;;17.36;82.13;101740.03;5041071;28;20241;-77
2022/05/19 01:19:42;;;;;;;21.60;16.42;;;;;;;17.36;82.08;101732.09;5045864;28;20051;-76
2022/05/19 01:22:11;;;;;;;21.25;16.65;;;;;;;17.36;82.18;101729.44;5021202;28;20021;-77
2022/05/19 01:24:50;;;;;;;25.88;16.00;;;;;;;17.39;81.98;101731.94;5020936;28;20226;-77
2022/05/19 01:27:15;;;;;;;23.35;16.80;;;;;;;17.40;81.89;101741.56;5021866;28;20080;-76
2022/05/19 01:29:40;;;;;;;25.85;16.65;;;;;;;17.37;82.20;101741.75;5039361;28;20276;-76
2022/05/19 01:32:22;;;;;;;23.85;16.55;;;;;;;17.37;82.48;101741.75;5030828;28;20339;-77
2022/05/19 01:34:47;;;;;;;22.35;16.55;;;;;;;17.40;82.37;101735.44;5050771;28;20061;-76
2022/05/19 01:37:13;;;;;;;20.52;16.85;;;;;;;17.42;82.12;101731.75;5021243;28;20064;-77
2022/05/19 01:39:39;;;;;;;21.30;16.42;;;;;;;17.44;82.06;101731.66;5028663;28;20296;-77
2022/05/19 01:42:15;;;;;;;24.77;17.05;;;;;;;17.43;82.29;101730.81;5040055;28;20092;-77
2022/05/19 01:44:43;;;;;;;23.10;17.50;;;;;;;17.45;82.30;101722.78;5021768;28;20104;-77
2022/05/19 01:47:37;;;;;;;22.45;16.83;;;;;;;17.45;82.64;101722.78;5022143;28;20148;-77
2022/05/19 01:50:21;;;;;;;27.73;18.67;;;;;;;17.45;82.21;101726.28;5040231;28;20034;-76
2022/05/19 01:52:53;;;;;;;25.63;17.42;;;;;;;17.45;82.34;101720.16;5039744;28;20047;-76
2022/05/19 01:55:23;;;;;;;24.83;16.95;;;;;;;17.46;82.44;101719.19;5038836;28;20033;-77
2022/05/19 01:57:55;;;;;;;17.02;14.68;;;;;;;17.52;82.02;101725.94;5035320;28;20033;-77
2022/05/19 02:00:22;;;;;;;17.02;13.85;;;;;;;17.56;81.83;101738.94;5040552;28;20048;-77
2022/05/19 02:02:54;;;;;;;13.83;10.97;;;;;;;17.59;81.20;101754.66;5039793;28;20395;-77
2022/05/19 02:05:39;;;;;;;10.82;9.77;;;;;;;17.61;80.15;101763.38;5040434;28;20037;-77
2022/05/19 02:08:12;;;;;;;16.90;11.20;;;;;;;17.64;79.93;101759.69;5037924;28;20052;-77
2022/05/19 02:10:42;;;;;;;20.80;14.30;;;;;;;17.68;79.80;101757.72;5026338;28;20030;-77
2022/05/19 02:13:08;;;;;;;20.48;14.05;;;;;;;17.70;80.70;101759.38;5020070;28;20036;-77
2022/05/19 02:15:39;;;;;;;22.75;15.38;;;;;;;17.70;81.33;101758.47;5018596;28;20045;-77
2022/05/19 02:18:04;;;;;;;19.98;15.15;;;;;;;17.72;81.43;101778.66;5037021;28;20405;-77
2022/05/19 02:20:32;;;;;;;20.73;14.32;;;;;;;17.71;81.73;101806.09;5030682;28;20041;-77
2022/05/19 02:22:59;;;;;;;17.85;13.85;;;;;;;17.73;81.45;101806.00;5036154;28;20113;-77
2022/05/19 02:25:34;;;;;;;18.92;13.75;;;;;;;17.74;81.47;101811.22;5037247;28;20029;-77
2022/05/19 02:28:10;;;;;;;18.80;14.43;;;;;;;17.75;81.49;101804.97;5016706;28;20104;-77
2022/05/19 02:30:38;;;;;;;22.10;16.58;;;;;;;17.75;81.92;101781.13;5025969;28;20042;-77
2022/05/19 02:33:04;;;;;;;21.27;16.30;;;;;;;17.75;82.80;101799.66;5033562;28;20096;-77
2022/05/19 02:35:30;;;;;;;23.27;15.68;;;;;;;17.77;83.12;101820.78;5037232;28;20279;-77
2022/05/19 02:37:57;;;;;;;22.10;16.23;;;;;;;17.77;82.78;101823.44;5033016;28;20403;-77
2022/05/19 02:40:25;;;;;;;19.67;17.13;;;;;;;17.77;83.13;101810.19;5038531;28;20045;-77
2022/05/19 02:42:51;;;;;;;23.25;16.88;;;;;;;17.78;83.51;101822.50;5038927;28;20220;-77
2022/05/19 02:45:17;;;;;;;19.55;15.65;;;;;;;17.79;83.23;101818.91;5039404;28;20057;-77
2022/05/19 02:47:43;;;;;;;30.83;19.67;;;;;;;17.79;83.46;101816.25;5013384;28;20037;-77
2022/05/19 02:50:10;;;;;;;22.23;17.35;;;;;;;17.80;83.95;101802.94;5006041;28;20036;-77
2022/05/19 02:52:36;;;;;;;23.98;17.30;;;;;;;17.81;83.68;101802.00;5039836;28;20037;-77
2022/05/19 02:55:01;;;;;;;19.75;15.85;;;;;;;17.81;83.91;101841.75;5038541;28;20033;-77
2022/05/19 02:57:26;;;;;;;14.55;13.15;;;;;;;17.80;83.40;101829.41;5004409;28;20038;-77
2022/05/19 02:59:52;;;;;;;27.02;18.33;;;;;;;17.82;83.97;101779.84;5021301;28;20087;-77
2022/05/19 03:02:17;;;;;;;22.05;18.30;;;;;;;17.79;86.40;101785.34;5039004;28;20037;-77
2022/05/19 03:04:43;;;;;;;25.55;17.58;;;;;;;17.79;86.08;101789.75;5021337;28;20033;-77
2022/05/19 03:07:08;;;;;;;21.02;14.00;;;;;;;17.80;85.91;101794.97;5039238;28;20033;-77
2022/05/19 03:09:34;;;;;;;19.40;13.82;;;;;;;17.80;86.64;101770.28;5038322;28;20045;-77
2022/05/19 03:12:00;;;;;;;14.80;11.95;;;;;;;17.80;87.34;101762.34;5039016;28;20027;-77
2022/05/19 03:14:25;;;;;;;14.60;10.85;;;;;;;17.78;86.98;101774.81;5021079;28;20056;-77
2022/05/19 03:16:50;;;;;;;12.10;9.52;;;;;;;17.79;86.75;101760.63;5038233;28;20025;-77
2022/05/19 03:19:16;;;;;;;9.38;7.15;;;;;;;17.79;86.58;101779.16;5039382;28;20117;-77
2022/05/19 03:21:42;;;;;;;10.15;7.60;;;;;;;17.80;85.94;101762.34;5038304;28;20426;-77
2022/05/19 03:24:08;;;;;;;7.72;6.93;;;;;;;17.81;86.23;101758.75;5038492;28;20025;-77
2022/05/19 03:26:34;;;;;;;10.15;7.03;;;;;;;17.81;86.06;101751.66;5038026;28;20037;-77
2022/05/19 03:28:59;;;;;;;5.85;5.40;;;;;;;17.82;86.05;101771.91;5039316;28;20044;-77
2022/05/19 03:31:25;;;;;;;7.53;5.25;;;;;;;17.83;85.41;101783.38;5038602;28;20037;-77
2022/05/19 03:33:50;;;;;;;8.27;4.78;;;;;;;17.82;85.51;101793.09;5038866;28;20141;-77
2022/05/19 03:36:16;;;;;;;8.07;4.57;;;;;;;17.84;84.86;101832.75;5021680;28;20101;-77
2022/05/19 03:38:42;;;;;;;11.55;4.45;;;;;;;17.86;85.04;101889.19;5031848;28;20054;-77
2022/05/19 03:41:07;;;;;;;6.32;3.33;;;;;;;17.81;83.09;101942.44;5019299;28;20048;-77
2022/05/19 03:43:33;;;;;;;8.88;4.25;;;;;;;17.80;81.62;101943.34;5018026;28;20030;-77
2022/05/19 03:46:01;;;;;;;7.90;5.32;;;;;;;17.83;82.58;101948.50;5002094;28;20032;-77
2022/05/19 03:48:31;;;;;;;6.90;3.88;;;;;;;17.86;83.24;101971.34;5018886;28;20033;-77
2022/05/19 03:50:57;;;;;;;3.97;3.67;;;;;;;17.86;82.18;101949.28;5019660;28;20042;-77
2022/05/19 03:53:22;;;;;;;4.78;3.88;;;;;;;17.87;82.08;101920.06;5019682;28;20326;-77
2022/05/19 03:55:47;;;;;;;4.68;3.70;;;;;;;17.89;82.67;101917.34;5001595;28;20105;-76
2022/05/19 03:58:13;;;;;;;7.93;4.22;;;;;;;17.88;82.08;101921.75;5019207;28;20032;-77
2022/05/19 04:00:39;;;;;;;5.00;4.07;;;;;;;17.88;81.30;101921.75;5000907;28;20037;-77
2022/05/19 04:03:05;;;;;;;6.65;5.00;;;;;;;17.89;81.42;101904.94;5019138;28;20029;-77
2022/05/19 04:05:30;;;;;;;7.47;5.72;;;;;;;17.89;82.06;101894.34;5017646;28;20046;-77
2022/05/19 04:07:55;;;;;;;11.60;6.13;;;;;;;17.91;82.53;101895.09;4998331;28;20022;-77
2022/05/19 04:10:21;;;;;;;8.73;5.82;;;;;;;17.93;83.11;101881.78;5007266;28;20329;-77
2022/05/19 04:12:46;;;;;;;7.50;6.80;;;;;;;17.93;84.69;101863.22;5018244;28;20407;-76
2022/05/19 04:15:13;;;;;;;10.52;7.45;;;;;;;17.91;86.83;101871.25;5018261;28;20033;-77
2022/05/19 04:17:39;;;;;;;8.70;6.88;;;;;;;17.91;86.48;101887.16;5018108;28;20261;-76
2022/05/19 04:20:07;;;;;;;7.88;7.03;;;;;;;17.92;86.12;101894.19;5018444;28;20040;-77
2022/05/19 04:22:32;;;;;;;8.68;6.45;;;;;;;17.92;86.04;101886.22;5021441;28;20037;-77
2022/05/19 04:25:00;;;;;;;7.70;5.82;;;;;;;17.92;85.08;101888.00;5022005;28;20205;-77
2022/05/19 04:27:29;;;;;;;7.50;6.70;;;;;;;17.92;84.75;101888.00;4987954;28;20037;-77
2022/05/19 04:29:55;;;;;;;9.63;7.35;;;;;;;17.92;84.98;101872.97;5021919;28;20040;-77
2022/05/19 04:32:20;;;;;;;7.75;6.97;;;;;;;17.93;85.50;101874.69;5022174;28;20049;-76
2022/05/19 04:34:45;;;;;;;12.00;7.57;;;;;;;17.93;85.39;101877.31;5004035;28;20045;-77
2022/05/19 04:37:11;;;;;;;7.53;6.78;;;;;;;17.93;85.12;101868.53;5022278;28;20026;-77
2022/05/19 04:39:36;;;;;;;7.72;6.97;;;;;;;17.93;85.16;101869.38;5031715;28;20061;-77
2022/05/19 04:42:06;;;;;;;8.07;7.28;;;;;;;17.94;85.20;101864.94;5041664;28;20033;-77
2022/05/19 04:44:32;;;;;;;7.60;6.97;;;;;;;17.93;84.89;101872.03;5039352;28;20349;-77
2022/05/19 04:46:57;;;;;;;9.55;7.07;;;;;;;17.93;85.10;101874.69;5040556;28;20278;-77
2022/05/19 04:49:23;;;;;;;8.55;7.75;;;;;;;17.94;85.19;101862.31;5026927;28;20112;-77
2022/05/19 04:51:48;;;;;;;9.55;8.50;;;;;;;17.93;85.45;101860.56;5019465;28;20045;-77
2022/05/19 04:54:13;;;;;;;8.93;8.00;;;;;;;17.94;85.62;101859.66;5022353;28;20033;-77
2022/05/19 04:56:40;;;;;;;10.95;8.00;;;;;;;17.93;85.45;101855.28;5039685;28;20040;-77
2022/05/19 04:59:13;;;;;;;9.43;8.60;;;;;;;17.92;85.18;101843.84;5030153;28;20096;-77
2022/05/19 05:01:39;;;;;;;9.43;8.52;;;;;;;17.92;84.97;101833.22;5020354;28;20084;-77
2022/05/19 05:04:05;;;;;;;10.05;9.18;;;;;;;17.92;85.25;101835.00;5029781;28;20041;-77
2022/05/19 05:06:32;;;;;;;10.00;9.00;;;;;;;17.92;85.38;101835.88;5018097;28;20044;-76
2022/05/19 05:08:57;;;;;;;9.50;8.70;;;;;;;17.92;85.17;101827.06;5038069;28;20035;-77
2022/05/19 05:11:23;;;;;;;10.23;9.18;;;;;;;17.92;85.16;101825.28;5040096;28;20056;-77
2022/05/19 05:13:48;;;;;;;14.13;12.25;;;;;;;17.91;86.45;101801.50;5038092;28;20076;-77
2022/05/19 05:16:13;;;;;;;19.40;13.65;;;;;;;17.85;89.41;101792.13;5040216;28;20297;-77
2022/05/19 05:18:39;;;;;;;15.15;13.60;;;;;;;17.82;89.66;101779.84;5039760;28;20041;-77
2022/05/19 05:21:05;;;;;;;18.67;13.20;;;;;;;17.81;89.57;101775.50;5038448;28;20260;-77
2022/05/19 05:23:31;;;;;;;17.00;12.10;;;;;;;17.81;89.66;101770.22;5021278;28;20208;-76
2022/05/19 05:25:56;;;;;;;18.83;14.13;;;;;;;17.79;90.61;101758.84;5040770;28;20057;-77
2022/05/19 05:28:21;;;;;;;15.75;12.98;;;;;;;17.79;91.15;101760.63;5022699;28;20054;-77
2022/05/19 05:30:49;;;;;;;12.70;11.40;;;;;;;17.81;90.53;101764.06;5022021;28;20364;-77
2022/05/19 05:33:15;;;;;;;13.00;11.77;;;;;;;17.81;90.33;101764.06;5021084;28;20039;-77
2022/05/19 05:35:41;;;;;;;12.40;11.13;;;;;;;17.83;90.19;101764.81;5039433;28;20096;-77
2022/05/19 05:38:07;;;;;;;16.90;11.70;;;;;;;17.79;90.38;101747.38;5005351;28;20368;-77
2022/05/19 05:40:33;;;;;;;13.13;11.32;;;;;;;17.78;90.44;101749.16;5021461;28;20217;-77
2022/05/19 05:43:18;;;;;;;12.85;10.80;;;;;;;17.81;89.80;101764.91;5038946;28;20044;-77
2022/05/19 05:45:45;;;;;;;10.48;9.50;;;;;;;17.82;89.63;101766.59;5038837;28;20280;-76
2022/05/19 05:48:11;;;;;;;12.13;9.38;;;;;;;17.84;89.26;101754.16;5021811;28;20022;-77
2022/05/19 05:50:37;;;;;;;10.40;9.40;;;;;;;17.84;89.26;101759.44;5038193;28;20333;-77
2022/05/19 05:53:05;;;;;;;9.55;8.52;;;;;;;17.84;88.65;101746.19;5039492;28;20105;-76
2022/05/19 05:55:31;;;;;;;9.80;8.85;;;;;;;17.87;88.58;101736.38;5038596;28;20033;-77
2022/05/19 05:57:57;;;;;;;12.80;11.50;;;;;;;17.83;89.25;101701.22;5038455;28;20042;-77
2022/05/19 06:00:23;;;;;;;10.88;9.88;;;;;;;17.86;89.22;101702.88;5038991;28;20065;-77
2022/05/19 06:02:49;;;;;;;11.15;10.05;;;;;;;17.83;89.21;101720.63;5038892;28;20269;-77
2022/05/19 06:05:15;;;;;;;12.43;10.90;;;;;;;17.86;89.47;101729.38;5038847;28;20033;-77
2022/05/19 06:07:40;;;;;;;10.65;9.65;;;;;;;17.86;89.67;101746.13;5036942;28;20079;-77
2022/05/19 06:10:07;;;;;;;12.50;11.20;;;;;;;17.86;90.13;101745.25;5037323;28;20054;-76
2022/05/19 06:12:32;;;;;;;12.48;10.90;;;;;;;17.86;90.25;101738.16;5038401;28;20321;-77
2022/05/19 06:14:58;;;;;;;11.57;10.32;;;;;;;17.87;90.06;101725.78;5021014;28;20033;-77
2022/05/19 06:17:24;;;;;;;9.20;8.45;;;;;;;17.88;89.75;101725.69;5037404;28;20029;-77
2022/05/19 06:19:50;;;;;;;11.48;10.43;;;;;;;17.89;89.50;101718.59;5042753;28;20048;-77
2022/05/19 06:22:16;;;;;;;13.02;11.73;;;;;;;17.89;90.57;101726.56;5049280;28;20025;-77
2022/05/19 06:24:41;;;;;;;13.43;11.55;;;;;;;17.91;90.81;101727.31;5045287;28;20276;-77
2022/05/19 06:27:06;;;;;;;18.92;13.63;;;;;;;17.90;91.72;101720.28;5030451;28;20103;-76
2022/05/19 06:29:32;;;;;;;15.27;13.77;;;;;;;17.88;91.81;101724.84;5048212;28;20053;-77
2022/05/19 06:31:57;;;;;;;19.13;13.55;;;;;;;17.92;91.42;101734.31;5047677;28;20041;-77
2022/05/19 06:34:23;;;;;;;14.57;12.30;;;;;;;17.94;91.66;101733.28;5039448;28;20124;-76
2022/05/19 06:36:48;;;;;;;13.35;12.05;;;;;;;17.98;91.55;101724.22;5039536;28;20048;-77
2022/05/19 06:39:16;;;;;;;17.13;13.95;;;;;;;18.00;91.89;101726.78;5038683;28;20233;-77
2022/05/19 06:42:02;;;;;;;19.38;15.18;;;;;;;18.01;92.78;101733.81;5043440;28;20321;-77
2022/05/19 06:44:36;;;;;;;19.10;14.40;;;;;;;18.01;92.98;101734.66;5034377;28;20025;-77
2022/05/19 06:47:06;;;;;;;17.40;14.73;;;;;;;17.99;93.19;101741.84;5046588;28;20259;-77
2022/05/19 06:49:31;;;;;;;17.05;15.27;;;;;;;17.98;93.42;101739.28;5044366;28;20079;-76
2022/05/19 06:51:57;;;;;;;20.73;15.52;;;;;;;17.99;93.54;101731.25;5040460;28;20352;-77
2022/05/19 06:54:23;;;;;;;15.05;13.45;;;;;;;18.03;93.88;101729.25;5046167;28;20286;-77
2022/05/19 06:56:48;;;;;;;16.73;14.02;;;;;;;18.06;94.06;101737.00;5044482;28;20125;-77
2022/05/19 06:59:16;;;;;;;15.85;14.18;;;;;;;18.09;94.00;101742.16;5042751;28;20040;-77
2022/05/19 07:01:42;;;;;;;13.57;12.27;;;;;;;18.13;93.72;101751.63;5015585;28;20041;-76
2022/05/19 07:04:08;;;;;;;21.73;15.88;;;;;;;18.16;94.00;101767.34;5025859;28;20034;-77
2022/05/19 07:06:34;;;;;;;15.45;13.68;;;;;;;18.20;94.07;101765.38;5030985;28;20102;-77
2022/05/19 07:08:59;;;;;;;18.65;13.27;;;;;;;18.18;92.73;101754.88;5038439;28;20093;-77
2022/05/19 07:11:24;;;;;;;12.23;11.13;;;;;;;18.23;92.75;101749.31;5005038;28;20032;-76
2022/05/19 07:13:57;;;;;;;12.23;11.13;;;;;;;18.29;92.44;101761.34;5005353;28;20018;-77
2022/05/19 07:16:23;;;;;;;18.67;12.77;;;;;;;18.31;92.39;101759.47;5029293;28;20049;-77
2022/05/19 07:18:49;;;;;;;15.13;13.60;;;;;;;18.32;92.95;101759.38;5021842;28;20329;-77
2022/05/19 07:21:16;;;;;;;18.55;13.30;;;;;;;18.31;92.19;101762.94;5031897;28;20045;-77
2022/05/19 07:23:42;;;;;;;18.05;12.43;;;;;;;18.35;92.56;101769.78;5033762;28;20545;-76
2022/05/19 07:26:07;;;;;;;14.65;12.63;;;;;;;18.39;92.67;101757.19;5032560;28;20105;-76
2022/05/19 07:28:33;;;;;;;13.70;11.93;;;;;;;18.41;92.79;101760.63;5030563;28;20044;-77
2022/05/19 07:30:59;;;;;;;15.30;12.18;;;;;;;18.45;92.66;101761.31;5034443;28;20034;-77
2022/05/19 07:33:28;;;;;;;12.98;11.57;;;;;;;18.46;92.98;101757.69;5012941;28;20037;-77
2022/05/19 07:35:55;;;;;;;12.90;11.05;;;;;;;18.47;92.54;101762.91;5016717;28;20351;-77
2022/05/19 07:38:21;;;;;;;13.40;12.00;;;;;;;18.47;92.25;101772.69;5032131;28;20108;-77
2022/05/19 07:40:49;;;;;;;14.38;11.93;;;;;;;18.47;92.40;101773.53;5032384;28;20111;-77
2022/05/19 07:45:59;;;;;;;12.73;11.52;;;;;;;18.46;92.10;101790.38;5033501;28;20519;-76
2022/05/19 07:48:24;;;;;;;13.13;11.80;;;;;;;18.48;92.50;101796.47;5033639;28;20033;-77
2022/05/19 07:50:49;;;;;;;12.20;10.95;;;;;;;18.52;92.17;101797.09;5036345;28;20037;-76
2022/05/19 07:53:15;;;;;;;14.50;10.77;;;;;;;18.55;91.97;101795.13;5034816;28;20241;-77
2022/05/19 07:55:40;;;;;;;15.40;10.32;;;;;;;18.60;91.60;101787.75;5036434;28;20295;-77
2022/05/19 07:58:06;;;;;;;10.57;9.27;;;;;;;18.64;91.48;101776.97;5038960;28;20438;-77
2022/05/19 08:00:31;;;;;;;13.02;11.68;;;;;;;18.67;91.58;101767.03;5039339;28;20104;-77
2022/05/19 08:02:57;;;;;;;13.57;12.10;;;;;;;18.68;91.54;101774.06;5036087;28;20049;-77
2022/05/19 08:05:22;;;;;;;15.23;12.65;;;;;;;18.73;91.54;101771.09;5035869;28;20069;-76
2022/05/19 08:07:47;;;;;;;13.23;11.90;;;;;;;18.74;92.00;101764.88;5030516;28;20091;-76
2022/05/19 08:10:25;;;;;;;14.85;11.50;;;;;;;18.77;91.89;101764.66;5040044;28;20113;-77
2022/05/19 08:15:37;;;;;;;15.18;12.40;;;;;;;18.87;92.15;101762.34;5029942;28;20459;-76
2022/05/19 08:18:06;;;;;;;13.18;11.45;;;;;;;18.92;91.93;101761.13;5040646;28;20218;-77
2022/05/19 08:20:32;;;;;;;12.95;11.40;;;;;;;18.97;91.24;101766.13;5044987;28;20333;-77
2022/05/19 08:22:58;;;;;;;13.30;11.88;;;;;;;19.00;91.52;101768.59;5047058;28;20033;-77
2022/05/19 08:25:26;;;;;;;12.23;10.82;;;;;;;19.01;90.31;101759.72;5046350;28;20068;-77
2022/05/19 08:27:53;;;;;;;12.80;10.85;;;;;;;19.04;89.99;101764.81;5026870;28;20429;-77
2022/05/19 08:30:18;;;;;;;10.55;9.65;;;;;;;19.06;88.73;101759.41;5028993;28;20041;-77
2022/05/19 08:32:44;;;;;;;10.43;9.38;;;;;;;19.10;89.43;101761.78;5043874;28;20029;-76
2022/05/19 08:35:10;;;;;;;11.88;10.73;;;;;;;19.12;89.18;101767.84;5032531;28;20251;-77
2022/05/19 08:37:35;;;;;;;10.60;9.70;;;;;;;19.13;88.02;101774.00;5025439;28;20029;-77
2022/05/19 08:40:01;;;;;;;11.07;8.95;;;;;;;19.14;87.18;101778.38;5031547;28;20044;-76
2022/05/19 08:42:30;;;;;;;11.00;10.07;;;;;;;19.22;88.43;101776.09;5029207;28;20125;-76
2022/05/19 08:45:00;;;;;;;11.45;10.23;;;;;;;19.26;88.84;101766.97;5018733;28;20033;-77
2022/05/19 08:47:30;;;;;;;11.00;9.90;;;;;;;19.30;88.54;101754.34;5044720;28;20033;-77
2022/05/19 08:50:03;;;;;;;13.23;10.23;;;;;;;19.31;87.77;101756.91;5044366;28;20033;-77
2022/05/19 08:52:41;;;;;;;11.70;10.52;;;;;;;19.41;88.44;101759.00;5043623;28;20110;-77
2022/05/19 08:55:12;;;;;;;10.88;9.75;;;;;;;19.47;87.54;101759.47;5043945;28;20041;-77
2022/05/19 08:57:58;;;;;;;10.70;9.77;;;;;;;19.56;87.95;101760.69;5040100;28;20033;-77
2022/05/19 09:00:30;;;;;;;11.02;8.48;;;;;;;19.59;86.44;101760.47;5038533;28;20042;-77
2022/05/19 09:03:18;;;;;;;9.85;9.02;;;;;;;19.65;86.47;101761.91;5044586;28;20040;-77
2022/05/19 09:06:05;;;;;;;8.80;8.02;;;;;;;19.74;86.17;101785.25;5042260;28;20049;-77
2022/05/19 09:09:01;;;;;;;8.13;7.40;;;;;;;19.80;85.41;101786.66;5027823;28;20029;-77
2022/05/19 09:11:44;;;;;;;7.63;6.97;;;;;;;19.85;84.45;101781.91;5037881;28;20049;-77
2022/05/19 09:14:25;;;;;;;8.88;5.90;;;;;;;19.87;82.99;101785.31;5035088;28;20043;-77
2022/05/19 09:16:55;;;;;;;6.50;5.88;;;;;;;19.91;82.77;101785.00;5035652;28;20033;-77
2022/05/19 09:19:30;;;;;;;7.72;6.30;;;;;;;19.93;82.30;101780.44;5034483;28;20255;-77
2022/05/19 09:22:20;;;;;;;6.68;6.05;;;;;;;19.95;81.14;101777.69;5049936;28;20056;-77
2022/05/19 09:24:49;;;;;;;6.70;5.00;;;;;;;20.02;81.52;101775.47;5036947;28;20068;-77
2022/05/19 09:27:16;;;;;;;;;;;;;;;20.06;82.62;101775.16;5037662;28;20431;-77
2022/05/19 09:29:46;;;;;;;5.93;5.35;;;;;;;20.09;81.88;101774.97;5033209;28;19948;-77
2022/05/19 09:32:16;;;;;;;7.22;5.07;;;;;;;20.13;81.94;101767.63;5039007;28;20126;-77
2022/05/19 09:34:46;;;;;;;6.40;4.57;;;;;;;20.18;81.82;101762.03;5040355;28;20313;-77
2022/05/19 09:37:19;;;;;;;5.00;4.60;;;;;;;20.24;80.83;101756.28;5038283;28;20029;-77
2022/05/19 09:39:53;;;;;;;6.72;5.35;;;;;;;20.27;80.15;101764.91;5027730;28;20341;-77
2022/05/19 09:42:33;;;;;;;5.82;4.75;;;;;;;20.30;80.02;101769.16;5015967;28;20039;-77
2022/05/19 09:44:59;;;;;;;4.38;4.07;;;;;;;20.39;80.36;101763.25;5040393;28;20074;-77
2022/05/19 09:47:27;;;;;;;6.13;3.80;;;;;;;20.40;80.22;101754.28;5017185;28;20034;-77
2022/05/19 09:50:18;;;;;;;5.55;3.50;;;;;;;20.44;78.76;101744.31;5041826;28;20037;-77
2022/05/19 09:52:45;;;;;;;3.83;3.50;;;;;;;20.46;79.20;101739.72;5014217;28;20133;-77
2022/05/19 09:55:13;;;;;;;4.45;3.72;;;;;;;20.56;79.21;101742.63;5039163;28;20186;-77
2022/05/19 09:57:46;;;;;;;4.25;3.55;;;;;;;20.58;81.08;101749.53;5025169;28;20037;-77
2022/05/19 10:00:34;;;;;;;5.00;3.63;;;;;;;20.62;81.29;101752.88;5034275;28;20225;-77
2022/05/19 10:03:01;;;;;;;4.00;3.55;;;;;;;20.63;81.16;101751.88;5045995;28;20063;-77
2022/05/19 10:05:38;;;;;;;4.43;3.47;;;;;;;20.64;81.72;101737.66;5029427;28;20076;-77
2022/05/19 10:08:07;;;;;;;3.95;3.38;;;;;;;20.65;81.81;101740.19;5037052;28;20085;-78
2022/05/19 10:10:42;;;;;;;5.43;3.20;;;;;;;20.67;82.83;101729.47;5036981;28;20053;-77
2022/05/19 10:13:11;;;;;;;4.68;3.60;;;;;;;20.69;83.43;101715.06;5037448;28;20354;-77
2022/05/19 10:15:58;;;;;;;6.22;4.57;;;;;;;20.71;82.88;101718.47;5035516;28;20045;-77
2022/05/19 10:18:42;;;;;;;4.72;4.38;;;;;;;20.75;83.43;101734.25;5009091;28;20418;-77
2022/05/19 10:21:33;;;;;;;4.85;4.32;;;;;;;20.77;83.10;101751.78;5032165;28;20036;-77
2022/05/19 10:24:31;;;;;;;4.65;4.22;;;;;;;20.81;82.87;101757.75;5026112;28;20121;-77
2022/05/19 10:33:19;;;;;;;5.20;4.80;;;;;;;20.73;80.48;101752.13;5034039;28;20039;-77
2022/05/19 10:35:47;;;;;;;6.28;5.40;;;;;;;20.66;77.92;101771.16;5024471;28;20053;-77
2022/05/19 10:38:36;;;;;;;7.18;5.70;;;;;;;20.61;77.56;101777.75;5021874;28;20237;-77
2022/05/19 10:41:13;;;;;;;7.18;6.10;;;;;;;20.57;77.65;101790.38;5028673;28;20541;-77
2022/05/19 10:44:08;;;;;;;7.93;6.43;;;;;;;20.50;77.21;101808.59;5032840;28;20041;-77
2022/05/19 10:46:42;;;;;;;13.02;6.75;;;;;;;20.44;77.79;101835.59;5028655;28;20060;-77
2022/05/19 10:49:45;;;;;;;11.50;7.28;;;;;;;20.35;78.83;101838.03;5030233;28;20029;-77
2022/05/19 10:52:28;;;;;;;8.45;7.63;;;;;;;20.19;79.85;101888.72;5034282;28;20340;-77
2022/05/19 10:55:23;;;;;;;9.88;6.55;;;;;;;20.01;79.94;101914.66;5035755;28;20037;-77
2022/05/19 10:58:13;;;;;;;11.50;8.48;;;;;;;19.96;80.72;101933.59;5014116;28;20079;-77
2022/05/19 11:00:54;;;;;;;9.25;8.15;;;;;;;19.93;81.22;101931.13;5027043;28;20037;-78
2022/05/19 11:03:47;;;;;;;8.18;7.35;;;;;;;19.87;81.46;101924.38;5012510;28;20436;-77
2022/05/19 11:06:51;;;;;;;10.68;8.35;;;;;;;19.82;81.45;101915.00;5036852;28;20033;-77
2022/05/19 11:09:37;;;;;;;12.35;9.88;;;;;;;19.77;82.29;101920.59;4973124;28;20066;-77
2022/05/19 11:12:27;;;;;;;10.73;9.63;;;;;;;19.70;83.11;101922.75;5032529;28;20076;-77
2022/05/19 11:15:14;;;;;;;16.10;13.85;;;;;;;19.54;85.75;101941.44;5030218;28;20036;-78
2022/05/19 11:18:07;;;;;;;16.23;14.50;;;;;;;19.51;86.19;101951.41;5034627;28;20052;-77
2022/05/19 11:21:06;;;;;;;14.98;11.95;;;;;;;19.45;85.72;101949.13;5035251;28;20037;-77
2022/05/19 11:23:48;;;;;;;13.20;10.68;;;;;;;19.42;85.39;101936.03;5025548;28;20038;-77
2022/05/19 11:26:38;;;;;;;11.73;10.63;;;;;;;19.41;85.35;101939.63;5034562;28;20048;-77
2022/05/19 11:29:16;;;;;;;20.75;12.52;;;;;;;19.38;85.30;101936.19;5034340;28;20086;-77
2022/05/19 11:31:45;;;;;;;;;;;;;;;19.37;85.09;101939.81;5035694;28;20045;-77
2022/05/19 11:34:35;;;;;;;11.27;9.07;;;;;;;19.33;84.58;101948.06;5039141;28;19951;-77
2022/05/19 11:37:30;;;;;;;8.93;8.02;;;;;;;19.31;84.40;101969.38;5042757;28;20325;-77
2022/05/19 11:40:22;;;;;;;9.98;8.00;;;;;;;19.30;83.74;101962.38;5044593;28;20046;-77
2022/05/19 11:42:51;;;;;;;7.80;7.00;;;;;;;19.26;82.91;101955.53;5046981;28;20136;-78
2022/05/19 11:45:21;;;;;;;;;;;;;;;19.25;82.47;101939.72;5030241;28;20241;-77
2022/05/19 11:56:49;;;;;;;6.68;5.57;;;;;;;19.16;82.59;101912.75;5036398;28;20400;-77